Time;durP1;ratioP1;P1;durP2;ratioP2;P2;SDS_P1;SDS_P2;PMS_P1;PMS_P2;Temp;Humidity;BMP_temperature;BMP_pressure;BME280_temperature;BME280_humidity;BME280_pressure;Samples;Min_cycle;Max_cycle;Signal;HPM_P1;HPM_P2
2023/09/18 00:01:08;;;;;;;11.38;7.78;;;;;;;;;;4979786;28;20155;-86
2023/09/18 00:03:34;;;;;;;10.02;7.35;;;;;;;;;;4980040;28;20139;-86
2023/09/18 00:06:00;;;;;;;12.73;8.25;;;;;;;;;;4983016;28;20055;-86
2023/09/18 00:08:26;;;;;;;11.15;8.05;;;;;;;;;;4999462;28;20045;-86
2023/09/18 00:10:53;;;;;;;9.80;7.40;;;;;;;;;;4981974;28;20033;-87
2023/09/18 00:13:19;;;;;;;11.48;8.18;;;;;;;;;;4999150;28;20061;-87
2023/09/18 00:15:46;;;;;;;9.90;7.70;;;;;;;;;;4981561;28;20073;-86
2023/09/18 00:18:14;;;;;;;11.07;8.07;;;;;;;;;;4999296;28;20038;-87
2023/09/18 00:20:40;;;;;;;10.00;7.85;;;;;;;;;;4981873;28;20412;-86
2023/09/18 00:23:06;;;;;;;9.10;8.02;;;;;;;;;;4999080;28;20022;-86
2023/09/18 00:25:32;;;;;;;9.85;8.10;;;;;;;;;;4998524;28;20050;-86
2023/09/18 00:27:58;;;;;;;9.73;8.15;;;;;;;;;;4999102;28;20027;-86
2023/09/18 00:30:24;;;;;;;8.85;7.57;;;;;;;;;;4981804;28;20029;-86
2023/09/18 00:32:50;;;;;;;10.43;8.32;;;;;;;;;;4981626;28;20026;-88
2023/09/18 00:38:20;;;;;;;9.65;7.60;;;;;;;;;;4998923;28;20033;-86
2023/09/18 00:40:46;;;;;;;10.02;8.00;;;;;;;;;;4998217;28;20317;-85
2023/09/18 00:43:12;;;;;;;10.35;8.52;;;;;;;;;;4998785;28;20026;-84
2023/09/18 00:45:41;;;;;;;11.15;8.50;;;;;;;;;;4981322;28;20028;-84
2023/09/18 00:48:07;;;;;;;14.52;8.00;;;;;;;;;;4998394;28;20026;-85
2023/09/18 00:50:33;;;;;;;10.52;7.63;;;;;;;;;;4981204;28;20030;-85
2023/09/18 00:53:01;;;;;;;9.30;8.07;;;;;;;;;;4998335;28;20022;-85
2023/09/18 00:55:28;;;;;;;9.75;8.18;;;;;;;;;;4980658;28;20113;-85
2023/09/18 00:57:55;;;;;;;9.88;8.32;;;;;;;;;;4998181;28;20035;-85
2023/09/18 01:00:22;;;;;;;10.43;8.00;;;;;;;;;;4998375;28;20101;-85
2023/09/18 01:02:48;;;;;;;12.35;8.43;;;;;;;;;;4980893;28;20022;-86
2023/09/18 01:08:17;;;;;;;12.95;8.43;;;;;;;;;;4998129;28;20033;-86
2023/09/18 01:10:49;;;;;;;11.23;7.70;;;;;;;;;;4998480;28;20053;-86
2023/09/18 01:13:16;;;;;;;9.43;8.25;;;;;;;;;;4980637;28;20085;-85
2023/09/18 01:15:45;;;;;;;11.07;8.50;;;;;;;;;;4998552;28;20037;-87
2023/09/18 01:18:11;;;;;;;11.13;8.15;;;;;;;;;;4997930;28;20031;-88
2023/09/18 01:20:55;;;;;;;11.55;8.88;;;;;;;;;;4998317;28;20314;-87
2023/09/18 01:23:21;;;;;;;11.00;7.90;;;;;;;;;;4998406;28;20102;-87
2023/09/18 01:25:47;;;;;;;9.98;7.53;;;;;;;;;;4980705;28;20082;-87
2023/09/18 01:28:16;;;;;;;10.73;7.65;;;;;;;;;;4979195;28;20034;-87
2023/09/18 01:30:42;;;;;;;10.40;8.15;;;;;;;;;;4980918;28;20027;-87
2023/09/18 01:33:09;;;;;;;9.82;7.95;;;;;;;;;;4980591;28;20035;-87
2023/09/18 01:35:36;;;;;;;11.95;8.68;;;;;;;;;;4980615;28;20039;-85
2023/09/18 01:38:03;;;;;;;10.10;8.30;;;;;;;;;;4992685;28;20429;-86
2023/09/18 01:40:29;;;;;;;9.43;8.25;;;;;;;;;;4978585;28;20038;-86
2023/09/18 01:42:55;;;;;;;10.30;8.48;;;;;;;;;;4978655;28;20034;-86
2023/09/18 01:45:21;;;;;;;11.48;8.65;;;;;;;;;;4962107;28;20062;-86
2023/09/18 01:47:47;;;;;;;14.20;9.10;;;;;;;;;;4994795;28;20022;-85
2023/09/18 01:50:13;;;;;;;11.30;8.27;;;;;;;;;;4978280;28;20045;-86
2023/09/18 01:52:39;;;;;;;9.68;7.93;;;;;;;;;;4961415;28;20114;-85
2023/09/18 01:55:07;;;;;;;13.02;9.20;;;;;;;;;;4982145;28;20312;-85
2023/09/18 01:57:33;;;;;;;9.60;8.07;;;;;;;;;;4965773;28;20031;-86
2023/09/18 01:59:59;;;;;;;11.77;8.88;;;;;;;;;;5001858;28;20054;-86
2023/09/18 02:02:25;;;;;;;9.95;8.35;;;;;;;;;;4984204;28;20058;-85
2023/09/18 02:07:56;;;;;;;12.80;8.80;;;;;;;;;;5001356;28;20069;-85
2023/09/18 02:10:22;;;;;;;13.77;9.13;;;;;;;;;;5001637;28;20344;-86
2023/09/18 02:12:48;;;;;;;9.90;8.40;;;;;;;;;;4984084;28;20029;-86
2023/09/18 02:15:16;;;;;;;11.35;8.63;;;;;;;;;;5001436;28;20027;-86
2023/09/18 02:17:42;;;;;;;10.43;8.30;;;;;;;;;;4984101;28;20034;-85
2023/09/18 02:20:48;;;;;;;12.23;8.82;;;;;;;;;;5001211;28;20026;-85
2023/09/18 02:23:14;;;;;;;14.20;9.35;;;;;;;;;;4983638;28;20506;-86
2023/09/18 02:25:40;;;;;;;11.50;8.85;;;;;;;;;;5000918;28;20137;-85
2023/09/18 02:28:07;;;;;;;11.05;9.20;;;;;;;;;;4983190;28;20132;-85
2023/09/18 02:30:33;;;;;;;10.50;8.00;;;;;;;;;;5000882;28;20495;-85
2023/09/18 02:32:59;;;;;;;11.77;8.48;;;;;;;;;;4983919;28;20049;-85
2023/09/18 02:35:25;;;;;;;10.75;9.18;;;;;;;;;;4982429;28;20332;-85
2023/09/18 02:37:51;;;;;;;13.48;8.93;;;;;;;;;;5000430;28;20507;-86
2023/09/18 02:40:17;;;;;;;13.48;9.43;;;;;;;;;;4983470;28;20081;-86
2023/09/18 02:42:44;;;;;;;10.52;9.27;;;;;;;;;;5001043;28;20022;-86
2023/09/18 02:45:10;;;;;;;10.63;9.18;;;;;;;;;;4969998;28;20038;-85
2023/09/18 02:47:40;;;;;;;13.98;9.15;;;;;;;;;;4986676;28;20073;-85
2023/09/18 02:53:44;;;;;;;12.35;9.52;;;;;;;;;;4981472;28;20045;-87
2023/09/18 02:56:10;;;;;;;12.30;9.57;;;;;;;;;;4963787;28;20031;-85
2023/09/18 02:58:36;;;;;;;13.45;9.30;;;;;;;;;;4999570;28;20065;-85
2023/09/18 03:01:05;;;;;;;12.20;8.98;;;;;;;;;;5000316;28;20113;-85
2023/09/18 03:03:31;;;;;;;13.15;9.60;;;;;;;;;;5000302;28;20041;-86
2023/09/18 03:06:04;;;;;;;11.23;8.63;;;;;;;;;;4967941;28;20052;-86
2023/09/18 03:08:30;;;;;;;10.80;9.05;;;;;;;;;;4980840;28;20085;-86
2023/09/18 03:10:56;;;;;;;13.05;9.25;;;;;;;;;;4963682;28;20054;-85
2023/09/18 03:13:23;;;;;;;13.50;9.60;;;;;;;;;;4981049;28;20035;-85
2023/09/18 03:15:49;;;;;;;13.27;9.90;;;;;;;;;;4968597;28;20025;-86
2023/09/18 03:18:15;;;;;;;16.95;9.55;;;;;;;;;;4981887;28;20046;-88
2023/09/18 03:24:22;;;;;;;12.45;9.45;;;;;;;;;;4985665;28;20069;-87
2023/09/18 03:26:49;;;;;;;11.90;9.63;;;;;;;;;;4987056;28;20322;-87
2023/09/18 03:29:15;;;;;;;12.20;9.13;;;;;;;;;;4981134;28;20027;-87
2023/09/18 03:31:41;;;;;;;14.43;9.57;;;;;;;;;;4982793;28;20070;-87
2023/09/18 03:34:41;;;;;;;12.40;9.70;;;;;;;;;;5000029;28;20039;-87
2023/09/18 03:37:07;;;;;;;11.30;10.13;;;;;;;;;;4985834;28;20041;-87
2023/09/18 03:39:33;;;;;;;12.07;10.10;;;;;;;;;;4999715;28;20030;-86
2023/09/18 03:41:59;;;;;;;17.23;9.95;;;;;;;;;;4982813;28;20030;-85
2023/09/18 03:44:25;;;;;;;15.93;10.20;;;;;;;;;;4982191;28;20117;-85
2023/09/18 03:46:51;;;;;;;11.77;9.40;;;;;;;;;;4972396;28;20046;-85
2023/09/18 03:49:17;;;;;;;13.02;9.85;;;;;;;;;;4978647;28;20031;-88
2023/09/18 03:51:44;;;;;;;14.57;9.55;;;;;;;;;;4970036;28;20129;-83
2023/09/18 03:54:10;;;;;;;12.68;9.30;;;;;;;;;;4999397;28;20018;-83
2023/09/18 03:56:36;;;;;;;13.55;10.98;;;;;;;;;;4980479;28;20038;-84
2023/09/18 03:59:04;;;;;;;18.60;10.15;;;;;;;;;;4979739;28;20070;-85
2023/09/18 04:01:31;;;;;;;13.35;10.52;;;;;;;;;;4979714;28;20033;-85
2023/09/18 04:03:58;;;;;;;11.93;9.93;;;;;;;;;;4962507;28;20026;-86
2023/09/18 04:09:28;;;;;;;14.25;10.68;;;;;;;;;;4999165;28;20049;-86
2023/09/18 04:11:55;;;;;;;12.07;9.95;;;;;;;;;;4998872;28;20026;-85
2023/09/18 04:14:21;;;;;;;11.40;9.85;;;;;;;;;;4981898;28;20045;-85
2023/09/18 04:16:47;;;;;;;10.60;9.48;;;;;;;;;;4967810;28;20030;-85
2023/09/18 04:19:13;;;;;;;12.82;9.35;;;;;;;;;;4962358;28;20031;-86
2023/09/18 04:21:39;;;;;;;13.52;10.25;;;;;;;;;;4962346;28;20428;-85
2023/09/18 04:24:05;;;;;;;16.13;10.82;;;;;;;;;;4962139;28;20321;-85
2023/09/18 04:26:33;;;;;;;13.02;9.77;;;;;;;;;;4962232;28;20054;-85
2023/09/18 04:28:59;;;;;;;11.57;9.85;;;;;;;;;;4979647;28;20110;-84
2023/09/18 04:31:27;;;;;;;14.48;10.38;;;;;;;;;;4964357;28;20043;-84
2023/09/18 04:33:53;;;;;;;17.33;10.88;;;;;;;;;;4979814;28;20240;-84
2023/09/18 04:36:19;;;;;;;11.43;9.70;;;;;;;;;;4966394;28;20050;-84
2023/09/18 04:38:45;;;;;;;13.27;9.77;;;;;;;;;;4984703;28;20057;-85
2023/09/18 04:41:11;;;;;;;13.73;10.00;;;;;;;;;;4979168;28;20049;-85
2023/09/18 04:43:40;;;;;;;14.82;10.48;;;;;;;;;;4979249;28;20039;-84
2023/09/18 04:46:06;;;;;;;13.25;10.30;;;;;;;;;;4961956;28;20468;-84
2023/09/18 04:48:32;;;;;;;12.13;10.23;;;;;;;;;;4995535;28;20050;-84
2023/09/18 04:51:36;;;;;;;14.00;10.20;;;;;;;;;;4968130;28;20451;-85
2023/09/18 04:54:02;;;;;;;17.42;10.30;;;;;;;;;;4979034;28;20030;-84
2023/09/18 04:56:28;;;;;;;13.43;9.95;;;;;;;;;;4978780;28;20129;-86
2023/09/18 04:58:54;;;;;;;13.15;10.32;;;;;;;;;;4961939;28;20034;-85
2023/09/18 05:01:20;;;;;;;12.40;10.25;;;;;;;;;;4970832;28;20038;-85
2023/09/18 05:03:48;;;;;;;13.95;9.55;;;;;;;;;;4998309;28;20022;-85
2023/09/18 05:06:14;;;;;;;11.07;9.45;;;;;;;;;;4989188;28;20106;-85
2023/09/18 05:08:40;;;;;;;13.80;9.95;;;;;;;;;;4967491;28;20035;-84
2023/09/18 05:11:06;;;;;;;11.90;10.02;;;;;;;;;;4998337;28;20030;-85
2023/09/18 05:13:32;;;;;;;15.15;10.80;;;;;;;;;;4998467;28;20035;-85
2023/09/18 05:16:00;;;;;;;17.83;11.52;;;;;;;;;;4978924;28;20038;-85
2023/09/18 05:18:26;;;;;;;14.77;10.30;;;;;;;;;;4998084;28;20097;-85
2023/09/18 05:20:52;;;;;;;12.82;10.43;;;;;;;;;;4980660;28;20038;-84
2023/09/18 05:23:19;;;;;;;11.52;10.00;;;;;;;;;;4998311;28;20032;-85
2023/09/18 05:25:45;;;;;;;11.90;9.75;;;;;;;;;;4972792;28;20337;-85
2023/09/18 05:28:11;;;;;;;14.07;10.20;;;;;;;;;;4981313;28;20026;-84
2023/09/18 05:30:40;;;;;;;16.20;10.20;;;;;;;;;;4965535;28;20023;-85
2023/09/18 05:33:08;;;;;;;11.35;9.43;;;;;;;;;;4982497;28;20023;-85
2023/09/18 05:35:52;;;;;;;11.52;10.23;;;;;;;;;;4982695;28;20031;-85
2023/09/18 05:38:18;;;;;;;13.45;9.93;;;;;;;;;;4965258;28;20054;-85
2023/09/18 05:40:44;;;;;;;12.93;10.27;;;;;;;;;;4965419;28;20031;-85
2023/09/18 05:43:11;;;;;;;11.07;9.88;;;;;;;;;;4982373;28;20049;-84
2023/09/18 05:45:38;;;;;;;13.35;10.05;;;;;;;;;;4965226;28;20429;-85
2023/09/18 05:48:04;;;;;;;13.30;10.35;;;;;;;;;;4965208;28;20058;-84
2023/09/18 05:53:47;;;;;;;13.98;9.95;;;;;;;;;;4982478;28;20034;-84
2023/09/18 05:56:14;;;;;;;13.63;9.27;;;;;;;;;;4964826;28;20138;-83
2023/09/18 05:58:40;;;;;;;15.75;9.95;;;;;;;;;;4982048;28;20352;-84
2023/09/18 06:01:07;;;;;;;14.77;9.90;;;;;;;;;;4964790;28;20037;-84
2023/09/18 06:03:35;;;;;;;14.32;10.20;;;;;;;;;;4981952;28;20054;-84
2023/09/18 06:06:05;;;;;;;14.95;9.82;;;;;;;;;;4976386;28;20149;-84
2023/09/18 06:08:31;;;;;;;17.55;10.18;;;;;;;;;;5000918;28;20057;-84
2023/09/18 06:10:58;;;;;;;17.10;9.73;;;;;;;;;;5001033;28;20113;-84
2023/09/18 06:13:28;;;;;;;11.88;10.07;;;;;;;;;;4994460;28;20101;-91
2023/09/18 06:15:55;;;;;;;16.40;10.10;;;;;;;;;;4992793;28;20026;-92
2023/09/18 06:18:22;;;;;;;17.95;9.50;;;;;;;;;;4976700;28;20310;-91
2023/09/18 06:21:20;;;;;;;16.25;10.38;;;;;;;;;;4984178;28;20324;-95
2023/09/18 06:23:46;;;;;;;14.50;9.75;;;;;;;;;;4981159;28;20031;-92
2023/09/18 06:26:13;;;;;;;15.02;9.88;;;;;;;;;;4981908;28;20055;-94
2023/09/18 06:28:40;;;;;;;14.50;9.93;;;;;;;;;;4964699;28;20431;-93
2023/09/18 06:31:06;;;;;;;14.20;9.48;;;;;;;;;;4999112;28;20041;-93
2023/09/18 06:33:32;;;;;;;13.43;10.02;;;;;;;;;;4985941;28;20031;-93
2023/09/18 06:35:59;;;;;;;15.32;10.68;;;;;;;;;;4983848;28;20121;-81
2023/09/18 06:38:25;;;;;;;18.80;10.07;;;;;;;;;;4997608;28;20328;-81
2023/09/18 06:40:52;;;;;;;13.38;9.48;;;;;;;;;;4982695;28;20348;-81
2023/09/18 06:43:18;;;;;;;16.48;9.30;;;;;;;;;;4971659;28;20384;-82
2023/09/18 06:45:44;;;;;;;10.75;8.93;;;;;;;;;;4969715;28;20333;-82
2023/09/18 06:48:10;;;;;;;17.95;9.40;;;;;;;;;;4990458;28;20325;-81
2023/09/18 06:50:36;;;;;;;14.45;10.23;;;;;;;;;;4992509;28;20022;-81
2023/09/18 06:53:02;;;;;;;16.05;9.13;;;;;;;;;;4998472;28;20301;-81
2023/09/18 06:55:28;;;;;;;11.60;8.93;;;;;;;;;;4988240;28;20031;-82
2023/09/18 06:57:54;;;;;;;12.50;9.48;;;;;;;;;;5000262;28;20069;-81
2023/09/18 07:00:20;;;;;;;14.52;9.13;;;;;;;;;;4991433;28;20027;-81
2023/09/18 07:02:47;;;;;;;13.43;8.80;;;;;;;;;;4981552;28;20033;-81
2023/09/18 07:05:13;;;;;;;15.68;8.95;;;;;;;;;;4986583;28;20054;-80
2023/09/18 07:07:39;;;;;;;14.73;9.00;;;;;;;;;;4973150;28;20045;-81
2023/09/18 07:10:05;;;;;;;20.25;8.32;;;;;;;;;;4983354;28;20018;-81
2023/09/18 07:12:32;;;;;;;17.00;9.40;;;;;;;;;;4991944;28;20101;-81
2023/09/18 07:14:59;;;;;;;16.30;8.95;;;;;;;;;;4968415;28;20409;-81
2023/09/18 07:17:25;;;;;;;12.65;8.93;;;;;;;;;;4982285;28;20405;-82
2023/09/18 07:19:51;;;;;;;12.25;8.45;;;;;;;;;;4972075;28;20047;-81
2023/09/18 07:22:17;;;;;;;13.52;7.60;;;;;;;;;;4999228;28;20050;-81
2023/09/18 07:24:45;;;;;;;15.38;8.85;;;;;;;;;;4998394;28;20041;-82
2023/09/18 07:27:11;;;;;;;12.80;8.48;;;;;;;;;;4981752;28;20093;-81
2023/09/18 07:29:37;;;;;;;13.65;8.73;;;;;;;;;;4969026;28;20416;-82
2023/09/18 07:32:03;;;;;;;10.80;8.15;;;;;;;;;;4981850;28;20348;-81
2023/09/18 07:34:29;;;;;;;24.13;9.68;;;;;;;;;;4975895;28;20417;-82
2023/09/18 07:36:56;;;;;;;14.20;8.38;;;;;;;;;;4979904;28;20413;-82
2023/09/18 07:39:22;;;;;;;13.32;8.75;;;;;;;;;;4979938;28;20026;-82
2023/09/18 07:41:48;;;;;;;15.32;8.68;;;;;;;;;;4982888;28;20034;-92
2023/09/18 07:44:21;;;;;;;11.73;7.68;;;;;;;;;;4975692;28;20030;-92
2023/09/18 07:46:49;;;;;;;18.77;8.70;;;;;;;;;;4967602;28;20018;-95
2023/09/18 07:49:16;;;;;;;9.13;8.05;;;;;;;;;;4972339;28;20117;-93
2023/09/18 07:51:42;;;;;;;10.25;8.38;;;;;;;;;;4970224;28;20037;-94
2023/09/18 07:54:08;;;;;;;14.90;8.45;;;;;;;;;;4981158;28;20030;-82
2023/09/18 07:56:36;;;;;;;16.02;8.73;;;;;;;;;;4998218;28;20117;-83
2023/09/18 07:59:02;;;;;;;13.98;8.35;;;;;;;;;;4974658;28;20037;-82
2023/09/18 08:01:31;;;;;;;12.25;7.90;;;;;;;;;;4979327;28;20031;-82
2023/09/18 08:03:59;;;;;;;12.07;8.48;;;;;;;;;;4979716;28;20031;-83
2023/09/18 08:06:26;;;;;;;12.15;8.18;;;;;;;;;;4993414;28;20026;-82
2023/09/18 08:08:53;;;;;;;19.83;9.48;;;;;;;;;;4962371;28;20039;-85
2023/09/18 08:11:19;;;;;;;15.40;8.05;;;;;;;;;;4985723;28;20038;-82
2023/09/18 08:13:45;;;;;;;18.30;9.10;;;;;;;;;;5000222;28;20309;-82
2023/09/18 08:16:11;;;;;;;15.70;8.63;;;;;;;;;;5017861;28;20025;-82
2023/09/18 08:18:40;;;;;;;12.68;7.97;;;;;;;;;;4961546;28;20042;-82
2023/09/18 08:21:07;;;;;;;13.93;8.45;;;;;;;;;;4961253;28;20050;-82
2023/09/18 08:23:35;;;;;;;12.98;7.72;;;;;;;;;;4989786;28;20029;-82
2023/09/18 08:26:01;;;;;;;14.05;8.77;;;;;;;;;;4998294;28;20060;-82
2023/09/18 08:28:27;;;;;;;15.10;8.55;;;;;;;;;;4998338;28;20312;-82
2023/09/18 08:30:53;;;;;;;15.23;8.50;;;;;;;;;;4998184;28;20052;-82
2023/09/18 08:33:20;;;;;;;10.90;7.85;;;;;;;;;;4989839;28;20050;-82
2023/09/18 08:36:05;;;;;;;12.68;8.30;;;;;;;;;;4961326;28;20337;-82
2023/09/18 08:38:32;;;;;;;19.55;8.98;;;;;;;;;;4978655;28;20417;-82
2023/09/18 08:40:58;;;;;;;15.63;8.98;;;;;;;;;;4985541;28;20018;-82
2023/09/18 08:43:25;;;;;;;16.00;8.23;;;;;;;;;;4979880;28;20405;-82
2023/09/18 08:45:55;;;;;;;14.30;8.23;;;;;;;;;;4976910;28;20081;-82
2023/09/18 08:48:21;;;;;;;15.52;8.13;;;;;;;;;;4978538;28;20019;-81
2023/09/18 08:50:48;;;;;;;12.38;8.23;;;;;;;;;;4985947;28;20085;-82
2023/09/18 08:53:15;;;;;;;20.95;7.95;;;;;;;;;;4978836;28;20050;-82
2023/09/18 08:55:41;;;;;;;15.52;7.68;;;;;;;;;;4961395;28;20035;-83
2023/09/18 08:58:08;;;;;;;15.35;7.90;;;;;;;;;;4961253;28;20337;-82
2023/09/18 09:00:36;;;;;;;9.75;8.02;;;;;;;;;;4978506;28;20027;-83
2023/09/18 09:03:04;;;;;;;24.70;8.32;;;;;;;;;;4977690;28;20031;-82
2023/09/18 09:05:31;;;;;;;16.30;8.43;;;;;;;;;;4961219;28;20045;-82
2023/09/18 09:07:57;;;;;;;16.67;8.30;;;;;;;;;;4980181;28;20135;-82
2023/09/18 09:10:25;;;;;;;13.95;8.18;;;;;;;;;;4980512;28;20037;-82
2023/09/18 09:12:57;;;;;;;19.08;8.50;;;;;;;;;;4972451;28;20046;-81
2023/09/18 09:15:30;;;;;;;18.20;8.57;;;;;;;;;;4983543;28;20026;-80
2023/09/18 09:18:06;;;;;;;14.32;8.07;;;;;;;;;;4971580;28;20051;-83
2023/09/18 09:20:33;;;;;;;10.68;7.93;;;;;;;;;;4960891;28;20031;-83
2023/09/18 09:23:03;;;;;;;11.73;7.55;;;;;;;;;;4961034;28;20022;-83
2023/09/18 09:25:31;;;;;;;14.00;7.90;;;;;;;;;;4983459;28;20482;-83
2023/09/18 09:27:58;;;;;;;10.57;7.57;;;;;;;;;;4988590;28;20110;-83
2023/09/18 09:30:25;;;;;;;9.32;7.00;;;;;;;;;;4962754;28;20027;-83
2023/09/18 09:32:52;;;;;;;7.95;7.13;;;;;;;;;;4996414;28;20029;-83
2023/09/18 09:35:45;;;;;;;12.48;7.35;;;;;;;;;;4992079;28;20310;-82
2023/09/18 09:38:15;;;;;;;12.43;7.47;;;;;;;;;;4978022;28;20084;-83
2023/09/18 09:40:42;;;;;;;10.85;6.88;;;;;;;;;;4976628;28;20113;-83
2023/09/18 09:43:14;;;;;;;12.38;7.00;;;;;;;;;;5015673;28;20072;-82
2023/09/18 09:45:40;;;;;;;10.70;7.15;;;;;;;;;;4998766;28;20034;-83
2023/09/18 09:48:07;;;;;;;13.57;7.18;;;;;;;;;;4997403;28;20077;-83
2023/09/18 09:50:53;;;;;;;9.57;7.40;;;;;;;;;;4997251;28;20027;-82
2023/09/18 09:53:19;;;;;;;11.57;7.00;;;;;;;;;;4997506;28;20031;-82
2023/09/18 09:55:45;;;;;;;13.10;7.15;;;;;;;;;;4997112;28;20098;-82
2023/09/18 09:58:13;;;;;;;15.15;7.07;;;;;;;;;;4997233;28;20026;-82
2023/09/18 10:00:45;;;;;;;12.82;7.30;;;;;;;;;;4993646;28;20304;-82
2023/09/18 10:03:12;;;;;;;12.90;7.28;;;;;;;;;;4967329;28;20474;-82
2023/09/18 10:05:58;;;;;;;10.40;7.53;;;;;;;;;;4981883;28;20409;-83
2023/09/18 10:08:26;;;;;;;14.93;6.90;;;;;;;;;;4968176;28;20030;-83
2023/09/18 10:10:53;;;;;;;8.80;6.47;;;;;;;;;;4997199;28;20459;-84
2023/09/18 10:13:20;;;;;;;9.70;6.32;;;;;;;;;;4977066;28;20062;-83
2023/09/18 10:15:46;;;;;;;12.65;7.07;;;;;;;;;;4981054;28;20067;-84
2023/09/18 10:18:23;;;;;;;15.48;6.90;;;;;;;;;;4993421;28;20384;-83
2023/09/18 10:20:51;;;;;;;12.18;7.63;;;;;;;;;;5000698;28;20413;-83
2023/09/18 10:23:44;;;;;;;11.00;7.50;;;;;;;;;;4977683;28;20329;-83
2023/09/18 10:26:11;;;;;;;11.38;7.25;;;;;;;;;;4887045;29;20490;-83
2023/09/18 10:28:38;;;;;;;12.98;7.10;;;;;;;;;;4914736;29;20072;-82
2023/09/18 10:31:06;;;;;;;14.50;6.63;;;;;;;;;;4905747;29;20051;-84
2023/09/18 10:33:32;;;;;;;16.20;6.85;;;;;;;;;;4917184;29;20430;-83
2023/09/18 10:35:58;;;;;;;13.93;7.90;;;;;;;;;;4921790;28;20035;-84
2023/09/18 10:38:25;;;;;;;14.60;7.45;;;;;;;;;;4921945;29;20367;-83
2023/09/18 10:40:52;;;;;;;11.30;7.57;;;;;;;;;;4921685;29;20345;-83
2023/09/18 10:43:18;;;;;;;12.45;7.30;;;;;;;;;;4921578;29;20037;-84
2023/09/18 10:45:44;;;;;;;14.60;7.35;;;;;;;;;;4905910;29;20042;-84
2023/09/18 10:48:13;;;;;;;11.88;6.82;;;;;;;;;;4905945;29;20024;-84
2023/09/18 10:50:58;;;;;;;16.73;7.72;;;;;;;;;;4905868;29;20043;-85
2023/09/18 10:53:26;;;;;;;11.95;7.70;;;;;;;;;;4905826;29;20031;-84
2023/09/18 10:55:52;;;;;;;13.05;7.60;;;;;;;;;;4905772;29;20474;-83
2023/09/18 10:58:24;;;;;;;16.45;7.43;;;;;;;;;;4921288;29;20119;-82
2023/09/18 11:00:50;;;;;;;13.90;6.93;;;;;;;;;;4921266;29;20068;-84
2023/09/18 11:03:17;;;;;;;11.52;7.55;;;;;;;;;;4959588;28;20030;-84
2023/09/18 11:05:47;;;;;;;12.65;8.52;;;;;;;;;;4986773;28;20026;-82
2023/09/18 11:08:28;;;;;;;14.77;7.97;;;;;;;;;;4977203;28;20034;-84
2023/09/18 11:10:54;;;;;;;;;;;;;;;;;;4981485;28;20030;-83
2023/09/18 11:13:29;;;;;;;16.55;7.55;;;;;;;;;;4968215;28;20326;-83
2023/09/18 11:16:00;;;;;;;14.90;8.38;;;;;;;;;;4981536;28;20038;-85
2023/09/18 11:41:30;;;;;;;15.85;8.45;;;;;;;;;;5057319;23;20344;-80
2023/09/18 11:44:17;;;;;;;13.57;7.30;;;;;;;;;;4961897;28;20031;-81
2023/09/18 11:46:54;;;;;;;15.38;8.20;;;;;;;;;;4948897;29;20027;-94
2023/09/18 11:49:27;;;;;;;15.55;8.02;;;;;;;;;;4980418;28;20031;-94
2023/09/18 11:54:58;;;;;;;10.45;7.25;;;;;;;;;;4981864;28;20033;-95
2023/09/18 11:57:25;;;;;;;11.07;7.57;;;;;;;;;;4981156;28;20038;-95
2023/09/18 11:59:52;;;;;;;11.82;7.85;;;;;;;;;;4980865;28;20468;-95
2023/09/18 12:02:28;;;;;;;13.68;9.15;;;;;;;;;;4974750;28;20058;-94
2023/09/18 12:04:54;;;;;;;16.75;10.32;;;;;;;;;;4975522;28;20034;-94
2023/09/18 12:07:21;;;;;;;14.27;10.52;;;;;;;;;;4951301;29;20418;-83
2023/09/18 12:09:47;;;;;;;19.27;10.50;;;;;;;;;;4958737;29;20031;-84
2023/09/18 12:12:15;;;;;;;17.30;9.80;;;;;;;;;;4958364;29;20122;-84
2023/09/18 12:14:42;;;;;;;14.98;8.80;;;;;;;;;;4958097;29;20366;-83
2023/09/18 12:17:08;;;;;;;13.52;9.57;;;;;;;;;;4958938;29;20034;-83
2023/09/18 12:19:35;;;;;;;11.68;9.70;;;;;;;;;;4958708;29;20051;-83
2023/09/18 12:22:02;;;;;;;11.98;10.00;;;;;;;;;;4958624;29;20019;-83
2023/09/18 12:24:28;;;;;;;11.90;9.70;;;;;;;;;;4951392;29;20027;-84
2023/09/18 12:26:55;;;;;;;11.80;9.98;;;;;;;;;;4954994;29;20475;-83
2023/09/18 12:29:21;;;;;;;17.60;9.93;;;;;;;;;;4960871;28;20035;-82
2023/09/18 12:31:47;;;;;;;16.35;10.60;;;;;;;;;;4942638;29;20024;-82
2023/09/18 12:34:24;;;;;;;15.95;11.40;;;;;;;;;;4942381;29;20049;-82
2023/09/18 12:36:51;;;;;;;14.57;9.60;;;;;;;;;;4941734;29;20417;-82
2023/09/18 12:39:18;;;;;;;15.85;10.82;;;;;;;;;;4958828;28;20043;-82
2023/09/18 12:41:45;;;;;;;16.45;9.32;;;;;;;;;;4959065;29;20118;-82
2023/09/18 12:44:11;;;;;;;14.57;9.95;;;;;;;;;;4958983;29;20118;-82
2023/09/18 12:46:40;;;;;;;13.63;10.80;;;;;;;;;;4949153;29;20310;-81
2023/09/18 12:49:19;;;;;;;14.38;8.88;;;;;;;;;;4957196;29;20076;-82
2023/09/18 12:51:54;;;;;;;13.75;9.25;;;;;;;;;;4957963;29;20035;-81
2023/09/18 12:54:20;;;;;;;15.68;10.57;;;;;;;;;;4933705;29;20040;-82
2023/09/18 12:56:46;;;;;;;15.13;9.63;;;;;;;;;;4958878;29;20039;-84
2023/09/18 12:59:12;;;;;;;16.33;9.13;;;;;;;;;;4929985;29;20114;-84
2023/09/18 13:01:39;;;;;;;14.65;8.40;;;;;;;;;;4942164;29;20031;-82
2023/09/18 13:04:05;;;;;;;14.90;8.82;;;;;;;;;;4957890;29;20082;-83
2023/09/18 13:06:31;;;;;;;14.88;9.27;;;;;;;;;;4957829;29;20122;-82
2023/09/18 13:09:15;;;;;;;18.92;11.10;;;;;;;;;;4957828;29;20023;-82
2023/09/18 13:11:59;;;;;;;16.05;8.88;;;;;;;;;;4959096;29;20122;-82
2023/09/18 13:14:25;;;;;;;25.75;11.23;;;;;;;;;;4959258;29;20038;-82
2023/09/18 13:16:51;;;;;;;14.25;8.60;;;;;;;;;;4958013;29;20330;-82
2023/09/18 13:19:19;;;;;;;10.75;8.15;;;;;;;;;;4958031;29;20313;-82
2023/09/18 13:21:48;;;;;;;11.85;8.50;;;;;;;;;;4958735;29;20468;-82
2023/09/18 13:24:27;;;;;;;11.70;7.72;;;;;;;;;;4957631;29;20083;-82
2023/09/18 13:26:54;;;;;;;13.43;8.27;;;;;;;;;;4958830;29;20041;-81
2023/09/18 13:29:20;;;;;;;11.10;9.05;;;;;;;;;;4958024;29;20070;-82
2023/09/18 13:31:46;;;;;;;14.20;8.88;;;;;;;;;;4957808;29;20052;-82
2023/09/18 13:34:12;;;;;;;14.82;8.77;;;;;;;;;;4957358;29;20087;-82
2023/09/18 13:36:38;;;;;;;18.17;9.13;;;;;;;;;;4957704;29;20031;-82
2023/09/18 13:39:05;;;;;;;15.73;8.40;;;;;;;;;;4959006;29;20031;-82
2023/09/18 13:41:32;;;;;;;17.02;8.88;;;;;;;;;;4958397;28;20047;-82
2023/09/18 13:43:58;;;;;;;10.93;8.45;;;;;;;;;;4958804;29;20028;-82
2023/09/18 13:46:25;;;;;;;17.67;8.98;;;;;;;;;;4941553;29;20425;-82
2023/09/18 13:48:51;;;;;;;11.18;7.47;;;;;;;;;;4960501;28;20406;-82
2023/09/18 13:51:17;;;;;;;13.90;8.32;;;;;;;;;;4945468;29;20440;-82
2023/09/18 13:53:43;;;;;;;10.68;7.78;;;;;;;;;;4962743;29;20317;-82
2023/09/18 13:56:09;;;;;;;11.77;7.63;;;;;;;;;;4952829;29;20032;-81
2023/09/18 13:58:41;;;;;;;12.73;7.85;;;;;;;;;;4926293;29;20426;-82
2023/09/18 14:01:07;;;;;;;12.07;7.80;;;;;;;;;;4943117;29;20083;-81
2023/09/18 14:03:34;;;;;;;17.30;8.23;;;;;;;;;;4942753;29;20023;-82
2023/09/18 14:06:00;;;;;;;10.65;7.45;;;;;;;;;;4943294;29;20028;-83
2023/09/18 14:08:26;;;;;;;12.80;8.15;;;;;;;;;;4942494;29;20028;-82
2023/09/18 14:10:52;;;;;;;12.43;8.15;;;;;;;;;;4942938;29;20123;-82
2023/09/18 14:13:18;;;;;;;11.50;8.45;;;;;;;;;;4942922;29;20035;-82
2023/09/18 14:15:44;;;;;;;14.27;8.25;;;;;;;;;;4925970;29;20040;-82
2023/09/18 14:18:10;;;;;;;12.88;7.80;;;;;;;;;;4926009;29;20084;-82
2023/09/18 14:20:36;;;;;;;9.77;7.55;;;;;;;;;;4942828;29;20063;-82
2023/09/18 14:23:03;;;;;;;10.88;7.20;;;;;;;;;;4925877;29;20039;-82
2023/09/18 14:25:30;;;;;;;12.73;7.50;;;;;;;;;;4942850;29;20027;-82
2023/09/18 14:27:56;;;;;;;11.52;7.63;;;;;;;;;;4925904;29;20087;-82
2023/09/18 14:30:29;;;;;;;8.70;7.65;;;;;;;;;;4942697;29;20166;-82
2023/09/18 14:32:55;;;;;;;12.45;8.15;;;;;;;;;;4942456;29;20036;-82
2023/09/18 14:35:23;;;;;;;10.00;7.60;;;;;;;;;;4925647;29;20028;-82
2023/09/18 14:37:49;;;;;;;9.32;7.60;;;;;;;;;;4942708;29;20027;-82
2023/09/18 14:40:21;;;;;;;9.43;7.30;;;;;;;;;;4942274;29;20111;-82
2023/09/18 14:42:47;;;;;;;10.23;7.07;;;;;;;;;;4925461;29;20035;-82
2023/09/18 14:45:13;;;;;;;14.52;6.88;;;;;;;;;;4942256;29;20035;-82
2023/09/18 14:47:39;;;;;;;10.90;7.20;;;;;;;;;;4942281;29;20020;-82
2023/09/18 14:50:06;;;;;;;11.02;6.60;;;;;;;;;;4925511;29;20047;-82
2023/09/18 14:52:32;;;;;;;17.88;6.90;;;;;;;;;;4942308;29;20440;-82
2023/09/18 14:55:00;;;;;;;11.65;6.97;;;;;;;;;;4942369;29;20063;-82
2023/09/18 14:57:26;;;;;;;15.60;7.97;;;;;;;;;;4942396;29;20055;-82
2023/09/18 14:59:53;;;;;;;14.52;7.05;;;;;;;;;;4924639;29;20084;-82
2023/09/18 15:02:19;;;;;;;12.10;7.00;;;;;;;;;;4942000;29;20128;-82
2023/09/18 15:04:46;;;;;;;9.88;7.40;;;;;;;;;;4941964;29;20402;-82
2023/09/18 15:07:12;;;;;;;12.32;7.80;;;;;;;;;;4941878;29;20032;-82
2023/09/18 15:09:38;;;;;;;13.40;7.05;;;;;;;;;;4942231;29;20043;-82
2023/09/18 15:12:07;;;;;;;10.25;6.75;;;;;;;;;;4941871;29;20138;-82
2023/09/18 15:14:34;;;;;;;9.82;7.03;;;;;;;;;;4925140;29;20042;-82
2023/09/18 15:17:00;;;;;;;9.40;6.93;;;;;;;;;;4924916;29;20023;-82
2023/09/18 15:19:26;;;;;;;9.48;6.30;;;;;;;;;;4941898;29;20102;-82
2023/09/18 15:21:53;;;;;;;12.57;6.47;;;;;;;;;;4941672;29;20406;-82